sensor_id;sensor_type;location;lat;lon;timestamp;P1;durP1;ratioP1;P2;durP2;ratioP2
77206;SDS011;66190;50.708;7.906;2023-08-17T00:00:07;11.37;;;4.07;;
77206;SDS011;66190;50.708;7.906;2023-08-17T00:02:38;8.88;;;4.07;;
77206;SDS011;66190;50.708;7.906;2023-08-17T00:05:04;8.53;;;4.47;;
77206;SDS011;66190;50.708;7.906;2023-08-17T00:07:33;9.30;;;3.70;;
77206;SDS011;66190;50.708;7.906;2023-08-17T00:09:59;10.50;;;4.20;;
77206;SDS011;66190;50.708;7.906;2023-08-17T00:12:24;9.02;;;4.10;;
77206;SDS011;66190;50.708;7.906;2023-08-17T00:14:50;15.20;;;4.20;;
77206;SDS011;66190;50.708;7.906;2023-08-17T00:17:19;14.43;;;4.57;;
77206;SDS011;66190;50.708;7.906;2023-08-17T00:19:45;8.88;;;4.05;;
77206;SDS011;66190;50.708;7.906;2023-08-17T00:22:10;10.87;;;4.23;;
77206;SDS011;66190;50.708;7.906;2023-08-17T00:24:36;10.77;;;4.33;;
77206;SDS011;66190;50.708;7.906;2023-08-17T00:27:01;10.40;;;4.27;;
77206;SDS011;66190;50.708;7.906;2023-08-17T00:29:26;10.93;;;4.88;;
77206;SDS011;66190;50.708;7.906;2023-08-17T00:31:52;9.33;;;3.97;;
77206;SDS011;66190;50.708;7.906;2023-08-17T00:34:18;15.63;;;4.80;;
77206;SDS011;66190;50.708;7.906;2023-08-17T00:36:43;10.98;;;4.72;;
77206;SDS011;66190;50.708;7.906;2023-08-17T00:39:09;12.63;;;4.70;;
77206;SDS011;66190;50.708;7.906;2023-08-17T00:41:34;11.93;;;4.53;;
77206;SDS011;66190;50.708;7.906;2023-08-17T00:44:00;10.55;;;4.20;;
77206;SDS011;66190;50.708;7.906;2023-08-17T00:46:26;11.30;;;4.27;;
77206;SDS011;66190;50.708;7.906;2023-08-17T00:48:52;8.98;;;4.55;;
77206;SDS011;66190;50.708;7.906;2023-08-17T00:51:20;11.55;;;4.90;;
77206;SDS011;66190;50.708;7.906;2023-08-17T00:53:48;11.85;;;5.00;;
77206;SDS011;66190;50.708;7.906;2023-08-17T00:56:16;12.25;;;5.32;;
77206;SDS011;66190;50.708;7.906;2023-08-17T00:58:42;10.98;;;5.55;;
77206;SDS011;66190;50.708;7.906;2023-08-17T01:01:08;13.30;;;4.63;;
77206;SDS011;66190;50.708;7.906;2023-08-17T01:03:33;10.27;;;5.30;;
77206;SDS011;66190;50.708;7.906;2023-08-17T01:05:59;10.90;;;4.80;;
77206;SDS011;66190;50.708;7.906;2023-08-17T01:08:27;10.60;;;4.30;;
77206;SDS011;66190;50.708;7.906;2023-08-17T01:14:04;9.55;;;5.13;;
77206;SDS011;66190;50.708;7.906;2023-08-17T01:16:27;8.05;;;3.78;;
77206;SDS011;66190;50.708;7.906;2023-08-17T01:18:58;8.20;;;4.03;;
77206;SDS011;66190;50.708;7.906;2023-08-17T01:21:26;6.83;;;2.90;;
77206;SDS011;66190;50.708;7.906;2023-08-17T01:24:00;8.10;;;3.60;;
77206;SDS011;66190;50.708;7.906;2023-08-17T01:26:28;6.82;;;3.10;;
77206;SDS011;66190;50.708;7.906;2023-08-17T01:28:54;7.57;;;2.50;;
77206;SDS011;66190;50.708;7.906;2023-08-17T01:31:21;6.18;;;2.40;;
77206;SDS011;66190;50.708;7.906;2023-08-17T01:34:06;6.70;;;2.13;;
77206;SDS011;66190;50.708;7.906;2023-08-17T02:16:55;7.00;;;1.90;;
77206;SDS011;66190;50.708;7.906;2023-08-17T02:19:21;9.47;;;2.57;;
77206;SDS011;66190;50.708;7.906;2023-08-17T02:21:47;40.23;;;2.70;;
77206;SDS011;66190;50.708;7.906;2023-08-17T02:24:12;20.23;;;2.70;;
77206;SDS011;66190;50.708;7.906;2023-08-17T02:26:37;6.90;;;1.73;;
77206;SDS011;66190;50.708;7.906;2023-08-17T02:29:03;6.43;;;2.10;;
77206;SDS011;66190;50.708;7.906;2023-08-17T02:31:29;7.35;;;1.90;;
77206;SDS011;66190;50.708;7.906;2023-08-17T02:33:54;5.17;;;1.53;;
77206;SDS011;66190;50.708;7.906;2023-08-17T02:36:23;5.38;;;1.73;;
77206;SDS011;66190;50.708;7.906;2023-08-17T02:38:48;5.80;;;1.57;;
77206;SDS011;66190;50.708;7.906;2023-08-17T02:41:14;4.23;;;1.43;;
77206;SDS011;66190;50.708;7.906;2023-08-17T02:43:39;5.70;;;1.60;;
77206;SDS011;66190;50.708;7.906;2023-08-17T02:46:04;7.63;;;1.40;;
77206;SDS011;66190;50.708;7.906;2023-08-17T02:48:32;5.45;;;1.33;;
77206;SDS011;66190;50.708;7.906;2023-08-17T02:50:58;5.00;;;1.15;;
77206;SDS011;66190;50.708;7.906;2023-08-17T02:53:23;5.10;;;1.40;;
77206;SDS011;66190;50.708;7.906;2023-08-17T02:55:49;5.73;;;1.30;;
77206;SDS011;66190;50.708;7.906;2023-08-17T02:58:14;6.80;;;1.70;;
77206;SDS011;66190;50.708;7.906;2023-08-17T03:00:39;6.53;;;1.70;;
77206;SDS011;66190;50.708;7.906;2023-08-17T03:03:05;6.23;;;1.90;;
77206;SDS011;66190;50.708;7.906;2023-08-17T03:05:30;9.03;;;2.13;;
77206;SDS011;66190;50.708;7.906;2023-08-17T03:07:55;16.47;;;1.50;;
77206;SDS011;66190;50.708;7.906;2023-08-17T03:10:21;10.13;;;1.70;;
77206;SDS011;66190;50.708;7.906;2023-08-17T03:12:47;4.55;;;1.58;;
77206;SDS011;66190;50.708;7.906;2023-08-17T03:15:12;6.53;;;1.43;;
77206;SDS011;66190;50.708;7.906;2023-08-17T03:17:37;6.10;;;1.43;;
77206;SDS011;66190;50.708;7.906;2023-08-17T03:20:03;5.77;;;1.87;;
77206;SDS011;66190;50.708;7.906;2023-08-17T03:22:31;4.80;;;1.30;;
77206;SDS011;66190;50.708;7.906;2023-08-17T03:24:57;4.93;;;1.50;;
77206;SDS011;66190;50.708;7.906;2023-08-17T03:27:22;6.13;;;2.08;;
77206;SDS011;66190;50.708;7.906;2023-08-17T03:29:49;6.00;;;2.00;;
77206;SDS011;66190;50.708;7.906;2023-08-17T03:32:15;8.55;;;2.47;;
77206;SDS011;66190;50.708;7.906;2023-08-17T03:34:40;24.03;;;2.60;;
77206;SDS011;66190;50.708;7.906;2023-08-17T03:37:05;86.57;;;4.63;;
77206;SDS011;66190;50.708;7.906;2023-08-17T03:39:31;19.37;;;3.37;;
77206;SDS011;66190;50.708;7.906;2023-08-17T03:41:56;7.37;;;2.37;;
77206;SDS011;66190;50.708;7.906;2023-08-17T03:44:21;7.88;;;2.20;;
77206;SDS011;66190;50.708;7.906;2023-08-17T03:46:47;8.07;;;2.63;;
77206;SDS011;66190;50.708;7.906;2023-08-17T03:49:12;6.60;;;1.97;;
77206;SDS011;66190;50.708;7.906;2023-08-17T03:51:38;6.10;;;2.10;;
77206;SDS011;66190;50.708;7.906;2023-08-17T03:54:03;5.77;;;2.00;;
77206;SDS011;66190;50.708;7.906;2023-08-17T03:56:29;6.35;;;2.10;;
77206;SDS011;66190;50.708;7.906;2023-08-17T03:58:54;6.33;;;1.63;;
77206;SDS011;66190;50.708;7.906;2023-08-17T04:01:19;5.70;;;2.20;;
77206;SDS011;66190;50.708;7.906;2023-08-17T04:03:45;6.10;;;2.20;;
77206;SDS011;66190;50.708;7.906;2023-08-17T04:06:10;6.50;;;2.23;;
77206;SDS011;66190;50.708;7.906;2023-08-17T04:08:36;5.07;;;1.93;;
77206;SDS011;66190;50.708;7.906;2023-08-17T04:11:02;5.70;;;2.10;;
77206;SDS011;66190;50.708;7.906;2023-08-17T04:13:28;6.55;;;2.20;;
77206;SDS011;66190;50.708;7.906;2023-08-17T04:15:54;5.40;;;2.07;;
77206;SDS011;66190;50.708;7.906;2023-08-17T04:18:19;6.60;;;2.10;;
77206;SDS011;66190;50.708;7.906;2023-08-17T04:20:44;5.40;;;2.23;;
77206;SDS011;66190;50.708;7.906;2023-08-17T04:23:10;5.75;;;1.52;;
77206;SDS011;66190;50.708;7.906;2023-08-17T04:25:35;4.77;;;1.73;;
77206;SDS011;66190;50.708;7.906;2023-08-17T04:28:01;8.57;;;2.13;;
77206;SDS011;66190;50.708;7.906;2023-08-17T04:30:26;8.17;;;2.30;;
77206;SDS011;66190;50.708;7.906;2023-08-17T04:32:51;5.77;;;2.03;;
77206;SDS011;66190;50.708;7.906;2023-08-17T04:35:20;8.13;;;2.00;;
77206;SDS011;66190;50.708;7.906;2023-08-17T04:37:45;5.10;;;2.00;;
77206;SDS011;66190;50.708;7.906;2023-08-17T04:40:12;4.90;;;1.40;;
77206;SDS011;66190;50.708;7.906;2023-08-17T04:42:37;6.28;;;1.90;;
77206;SDS011;66190;50.708;7.906;2023-08-17T04:45:03;5.90;;;1.77;;
77206;SDS011;66190;50.708;7.906;2023-08-17T04:47:29;5.97;;;1.52;;
77206;SDS011;66190;50.708;7.906;2023-08-17T04:49:54;4.80;;;1.80;;
77206;SDS011;66190;50.708;7.906;2023-08-17T04:52:19;6.13;;;1.90;;
77206;SDS011;66190;50.708;7.906;2023-08-17T04:54:45;5.50;;;1.90;;
77206;SDS011;66190;50.708;7.906;2023-08-17T04:57:10;5.97;;;2.47;;
77206;SDS011;66190;50.708;7.906;2023-08-17T04:59:36;8.25;;;2.75;;
77206;SDS011;66190;50.708;7.906;2023-08-17T05:02:01;8.27;;;3.27;;
77206;SDS011;66190;50.708;7.906;2023-08-17T05:04:27;9.97;;;3.20;;
77206;SDS011;66190;50.708;7.906;2023-08-17T05:06:52;14.05;;;3.90;;
77206;SDS011;66190;50.708;7.906;2023-08-17T05:09:17;11.87;;;3.97;;
77206;SDS011;66190;50.708;7.906;2023-08-17T05:11:43;19.30;;;4.50;;
77206;SDS011;66190;50.708;7.906;2023-08-17T05:14:08;20.20;;;4.40;;
77206;SDS011;66190;50.708;7.906;2023-08-17T05:16:34;13.60;;;3.70;;
77206;SDS011;66190;50.708;7.906;2023-08-17T05:18:59;12.07;;;3.38;;
77206;SDS011;66190;50.708;7.906;2023-08-17T05:21:25;19.13;;;2.53;;
77206;SDS011;66190;50.708;7.906;2023-08-17T05:23:51;18.23;;;3.53;;
77206;SDS011;66190;50.708;7.906;2023-08-17T05:26:16;16.00;;;3.37;;
77206;SDS011;66190;50.708;7.906;2023-08-17T05:28:42;12.07;;;2.50;;
77206;SDS011;66190;50.708;7.906;2023-08-17T05:31:08;23.38;;;3.03;;
77206;SDS011;66190;50.708;7.906;2023-08-17T05:33:33;20.53;;;3.60;;
77206;SDS011;66190;50.708;7.906;2023-08-17T05:35:59;36.28;;;3.28;;
77206;SDS011;66190;50.708;7.906;2023-08-17T05:38:24;18.27;;;2.50;;
77206;SDS011;66190;50.708;7.906;2023-08-17T05:40:56;15.20;;;3.10;;
77206;SDS011;66190;50.708;7.906;2023-08-17T05:43:22;16.63;;;3.55;;
77206;SDS011;66190;50.708;7.906;2023-08-17T05:45:48;26.45;;;3.53;;
77206;SDS011;66190;50.708;7.906;2023-08-17T05:48:14;14.90;;;3.33;;
77206;SDS011;66190;50.708;7.906;2023-08-17T05:50:42;12.03;;;2.43;;
77206;SDS011;66190;50.708;7.906;2023-08-17T05:53:08;7.38;;;2.25;;
77206;SDS011;66190;50.708;7.906;2023-08-17T05:55:33;9.63;;;2.23;;
77206;SDS011;66190;50.708;7.906;2023-08-17T05:57:59;9.35;;;2.30;;
77206;SDS011;66190;50.708;7.906;2023-08-17T06:00:25;15.67;;;2.33;;
77206;SDS011;66190;50.708;7.906;2023-08-17T06:02:50;7.37;;;2.13;;
77206;SDS011;66190;50.708;7.906;2023-08-17T06:05:16;6.13;;;2.20;;
77206;SDS011;66190;50.708;7.906;2023-08-17T06:07:42;10.18;;;2.40;;
77206;SDS011;66190;50.708;7.906;2023-08-17T06:10:09;10.37;;;2.40;;
77206;SDS011;66190;50.708;7.906;2023-08-17T06:12:35;11.63;;;2.28;;
77206;SDS011;66190;50.708;7.906;2023-08-17T06:15:01;6.20;;;2.10;;
77206;SDS011;66190;50.708;7.906;2023-08-17T06:17:27;13.30;;;1.90;;
77206;SDS011;66190;50.708;7.906;2023-08-17T06:19:53;6.50;;;1.60;;
77206;SDS011;66190;50.708;7.906;2023-08-17T06:22:18;7.10;;;1.97;;
77206;SDS011;66190;50.708;7.906;2023-08-17T06:24:43;9.60;;;2.25;;
77206;SDS011;66190;50.708;7.906;2023-08-17T06:27:09;6.83;;;2.20;;
77206;SDS011;66190;50.708;7.906;2023-08-17T06:29:34;7.67;;;2.00;;
77206;SDS011;66190;50.708;7.906;2023-08-17T06:32:00;8.30;;;2.47;;
77206;SDS011;66190;50.708;7.906;2023-08-17T06:34:25;8.60;;;2.47;;
77206;SDS011;66190;50.708;7.906;2023-08-17T06:37:02;9.80;;;2.30;;
77206;SDS011;66190;50.708;7.906;2023-08-17T06:39:28;6.88;;;2.40;;
77206;SDS011;66190;50.708;7.906;2023-08-17T06:41:54;6.63;;;2.50;;
77206;SDS011;66190;50.708;7.906;2023-08-17T06:44:20;7.55;;;2.13;;
77206;SDS011;66190;50.708;7.906;2023-08-17T06:46:45;7.63;;;2.20;;
77206;SDS011;66190;50.708;7.906;2023-08-17T06:49:11;6.22;;;2.10;;
77206;SDS011;66190;50.708;7.906;2023-08-17T06:51:37;6.60;;;2.67;;
77206;SDS011;66190;50.708;7.906;2023-08-17T06:54:03;8.10;;;2.95;;
77206;SDS011;66190;50.708;7.906;2023-08-17T06:56:29;7.70;;;3.22;;
77206;SDS011;66190;50.708;7.906;2023-08-17T06:58:55;7.77;;;3.13;;
77206;SDS011;66190;50.708;7.906;2023-08-17T07:01:20;9.67;;;4.17;;
77206;SDS011;66190;50.708;7.906;2023-08-17T07:03:46;8.85;;;3.53;;
77206;SDS011;66190;50.708;7.906;2023-08-17T07:06:12;7.93;;;3.30;;
77206;SDS011;66190;50.708;7.906;2023-08-17T07:08:38;9.32;;;3.00;;
77206;SDS011;66190;50.708;7.906;2023-08-17T07:11:04;9.57;;;3.73;;
77206;SDS011;66190;50.708;7.906;2023-08-17T07:13:30;7.88;;;3.03;;
77206;SDS011;66190;50.708;7.906;2023-08-17T07:15:56;8.10;;;2.70;;
77206;SDS011;66190;50.708;7.906;2023-08-17T07:18:21;6.90;;;2.40;;
77206;SDS011;66190;50.708;7.906;2023-08-17T07:20:46;8.03;;;3.93;;
77206;SDS011;66190;50.708;7.906;2023-08-17T07:23:12;7.97;;;3.35;;
77206;SDS011;66190;50.708;7.906;2023-08-17T07:25:37;7.47;;;3.20;;
77206;SDS011;66190;50.708;7.906;2023-08-17T07:28:02;9.90;;;3.40;;
77206;SDS011;66190;50.708;7.906;2023-08-17T07:30:28;8.50;;;3.60;;
77206;SDS011;66190;50.708;7.906;2023-08-17T07:32:53;8.77;;;4.07;;
77206;SDS011;66190;50.708;7.906;2023-08-17T07:35:19;8.33;;;3.57;;
77206;SDS011;66190;50.708;7.906;2023-08-17T07:37:44;9.27;;;3.33;;
77206;SDS011;66190;50.708;7.906;2023-08-17T07:40:10;8.87;;;3.30;;
77206;SDS011;66190;50.708;7.906;2023-08-17T07:42:35;8.47;;;3.30;;
77206;SDS011;66190;50.708;7.906;2023-08-17T07:45:01;9.05;;;3.50;;
77206;SDS011;66190;50.708;7.906;2023-08-17T07:47:31;7.80;;;3.00;;
77206;SDS011;66190;50.708;7.906;2023-08-17T07:49:56;8.00;;;3.50;;
77206;SDS011;66190;50.708;7.906;2023-08-17T07:52:22;7.00;;;3.10;;
77206;SDS011;66190;50.708;7.906;2023-08-17T07:54:48;7.87;;;3.60;;
77206;SDS011;66190;50.708;7.906;2023-08-17T07:57:13;9.40;;;4.00;;
77206;SDS011;66190;50.708;7.906;2023-08-17T07:59:39;8.45;;;3.40;;
77206;SDS011;66190;50.708;7.906;2023-08-17T08:02:04;7.53;;;3.47;;
77206;SDS011;66190;50.708;7.906;2023-08-17T08:04:30;7.93;;;3.67;;
77206;SDS011;66190;50.708;7.906;2023-08-17T08:06:55;8.37;;;3.40;;
77206;SDS011;66190;50.708;7.906;2023-08-17T08:09:21;7.38;;;3.40;;
77206;SDS011;66190;50.708;7.906;2023-08-17T08:11:46;7.50;;;3.70;;
77206;SDS011;66190;50.708;7.906;2023-08-17T08:14:12;8.03;;;3.53;;
77206;SDS011;66190;50.708;7.906;2023-08-17T08:16:37;9.67;;;3.73;;
77206;SDS011;66190;50.708;7.906;2023-08-17T08:19:02;8.57;;;3.40;;
77206;SDS011;66190;50.708;7.906;2023-08-17T08:21:28;7.88;;;3.33;;
77206;SDS011;66190;50.708;7.906;2023-08-17T08:23:53;8.53;;;3.50;;
77206;SDS011;66190;50.708;7.906;2023-08-17T08:26:19;8.00;;;3.40;;
77206;SDS011;66190;50.708;7.906;2023-08-17T08:28:44;8.27;;;3.83;;
77206;SDS011;66190;50.708;7.906;2023-08-17T08:31:10;8.73;;;3.17;;
77206;SDS011;66190;50.708;7.906;2023-08-17T08:33:35;8.97;;;4.13;;
77206;SDS011;66190;50.708;7.906;2023-08-17T08:36:01;7.93;;;3.80;;
77206;SDS011;66190;50.708;7.906;2023-08-17T08:38:26;9.48;;;3.97;;
77206;SDS011;66190;50.708;7.906;2023-08-17T08:40:52;8.30;;;4.27;;
77206;SDS011;66190;50.708;7.906;2023-08-17T08:43:18;9.27;;;4.55;;
77206;SDS011;66190;50.708;7.906;2023-08-17T08:45:44;8.57;;;3.90;;
77206;SDS011;66190;50.708;7.906;2023-08-17T08:48:10;8.63;;;4.25;;
77206;SDS011;66190;50.708;7.906;2023-08-17T08:50:37;9.40;;;4.82;;
77206;SDS011;66190;50.708;7.906;2023-08-17T09:06:03;8.07;;;4.20;;
77206;SDS011;66190;50.708;7.906;2023-08-17T09:08:29;6.80;;;4.00;;
77206;SDS011;66190;50.708;7.906;2023-08-17T09:10:55;7.70;;;3.95;;
77206;SDS011;66190;50.708;7.906;2023-08-17T09:13:20;6.47;;;3.50;;
77206;SDS011;66190;50.708;7.906;2023-08-17T09:15:46;7.40;;;3.42;;
77206;SDS011;66190;50.708;7.906;2023-08-17T09:18:11;7.10;;;3.57;;
77206;SDS011;66190;50.708;7.906;2023-08-17T09:20:38;6.50;;;3.63;;
77206;SDS011;66190;50.708;7.906;2023-08-17T09:23:17;7.57;;;4.50;;
77206;SDS011;66190;50.708;7.906;2023-08-17T09:25:47;7.65;;;4.10;;
77206;SDS011;66190;50.708;7.906;2023-08-17T09:28:15;7.68;;;3.88;;
77206;SDS011;66190;50.708;7.906;2023-08-17T09:30:57;5.93;;;3.50;;
77206;SDS011;66190;50.708;7.906;2023-08-17T09:33:29;6.77;;;3.70;;
77206;SDS011;66190;50.708;7.906;2023-08-17T09:35:57;7.30;;;3.72;;
77206;SDS011;66190;50.708;7.906;2023-08-17T09:38:23;5.95;;;3.40;;
77206;SDS011;66190;50.708;7.906;2023-08-17T09:40:49;6.30;;;3.17;;
77206;SDS011;66190;50.708;7.906;2023-08-17T09:43:15;6.05;;;3.30;;
77206;SDS011;66190;50.708;7.906;2023-08-17T09:45:45;6.33;;;2.90;;
77206;SDS011;66190;50.708;7.906;2023-08-17T09:48:14;5.93;;;3.22;;
77206;SDS011;66190;50.708;7.906;2023-08-17T09:50:42;6.47;;;3.30;;
77206;SDS011;66190;50.708;7.906;2023-08-17T09:53:12;6.20;;;3.05;;
77206;SDS011;66190;50.708;7.906;2023-08-17T09:55:38;6.10;;;3.10;;
77206;SDS011;66190;50.708;7.906;2023-08-17T09:58:05;6.33;;;3.10;;
77206;SDS011;66190;50.708;7.906;2023-08-17T10:00:31;6.13;;;3.38;;
77206;SDS011;66190;50.708;7.906;2023-08-17T10:02:58;5.97;;;3.33;;
77206;SDS011;66190;50.708;7.906;2023-08-17T10:05:28;7.07;;;3.05;;
77206;SDS011;66190;50.708;7.906;2023-08-17T10:07:57;6.43;;;3.28;;
77206;SDS011;66190;50.708;7.906;2023-08-17T10:10:25;6.57;;;3.30;;
77206;SDS011;66190;50.708;7.906;2023-08-17T10:12:53;6.30;;;3.50;;
77206;SDS011;66190;50.708;7.906;2023-08-17T10:15:20;6.38;;;3.42;;
77206;SDS011;66190;50.708;7.906;2023-08-17T10:17:55;6.53;;;3.22;;
77206;SDS011;66190;50.708;7.906;2023-08-17T10:20:28;6.22;;;3.20;;
77206;SDS011;66190;50.708;7.906;2023-08-17T10:25:37;5.82;;;3.15;;
77206;SDS011;66190;50.708;7.906;2023-08-17T10:28:03;6.13;;;2.55;;
77206;SDS011;66190;50.708;7.906;2023-08-17T10:30:30;5.40;;;2.45;;
77206;SDS011;66190;50.708;7.906;2023-08-17T10:32:55;5.90;;;2.77;;
77206;SDS011;66190;50.708;7.906;2023-08-17T10:35:21;6.20;;;3.13;;
77206;SDS011;66190;50.708;7.906;2023-08-17T10:37:47;5.38;;;2.90;;
77206;SDS011;66190;50.708;7.906;2023-08-17T10:40:13;5.85;;;3.10;;
77206;SDS011;66190;50.708;7.906;2023-08-17T10:42:39;6.60;;;2.73;;
77206;SDS011;66190;50.708;7.906;2023-08-17T10:50:32;5.97;;;3.05;;
77206;SDS011;66190;50.708;7.906;2023-08-17T10:53:03;5.93;;;3.03;;
77206;SDS011;66190;50.708;7.906;2023-08-17T10:55:41;5.65;;;2.53;;
77206;SDS011;66190;50.708;7.906;2023-08-17T10:58:10;6.22;;;3.20;;
77206;SDS011;66190;50.708;7.906;2023-08-17T11:00:37;6.82;;;3.50;;
77206;SDS011;66190;50.708;7.906;2023-08-17T11:08:08;5.88;;;3.05;;
77206;SDS011;66190;50.708;7.906;2023-08-17T11:13:24;6.38;;;2.85;;
77206;SDS011;66190;50.708;7.906;2023-08-17T11:15:52;6.00;;;3.40;;
77206;SDS011;66190;50.708;7.906;2023-08-17T11:18:17;5.73;;;2.90;;
77206;SDS011;66190;50.708;7.906;2023-08-17T11:20:43;5.40;;;2.77;;
77206;SDS011;66190;50.708;7.906;2023-08-17T11:23:08;6.15;;;2.65;;
77206;SDS011;66190;50.708;7.906;2023-08-17T11:25:36;5.95;;;2.95;;
77206;SDS011;66190;50.708;7.906;2023-08-17T11:28:03;6.57;;;3.10;;
77206;SDS011;66190;50.708;7.906;2023-08-17T11:30:31;6.20;;;2.67;;
77206;SDS011;66190;50.708;7.906;2023-08-17T11:32:59;5.43;;;2.50;;
77206;SDS011;66190;50.708;7.906;2023-08-17T11:35:25;6.20;;;2.67;;
77206;SDS011;66190;50.708;7.906;2023-08-17T11:37:50;5.70;;;2.80;;
77206;SDS011;66190;50.708;7.906;2023-08-17T11:40:15;5.90;;;2.63;;
77206;SDS011;66190;50.708;7.906;2023-08-17T11:42:41;10.68;;;3.03;;
77206;SDS011;66190;50.708;7.906;2023-08-17T11:45:08;5.20;;;2.57;;
77206;SDS011;66190;50.708;7.906;2023-08-17T11:47:40;5.53;;;2.83;;
77206;SDS011;66190;50.708;7.906;2023-08-17T11:50:07;7.93;;;2.78;;
77206;SDS011;66190;50.708;7.906;2023-08-17T11:52:34;5.18;;;2.65;;
77206;SDS011;66190;50.708;7.906;2023-08-17T11:55:03;6.13;;;3.08;;
77206;SDS011;66190;50.708;7.906;2023-08-17T11:57:34;5.73;;;3.10;;
77206;SDS011;66190;50.708;7.906;2023-08-17T12:00:01;5.97;;;2.70;;
77206;SDS011;66190;50.708;7.906;2023-08-17T12:02:28;6.43;;;2.92;;
77206;SDS011;66190;50.708;7.906;2023-08-17T12:04:55;5.65;;;2.63;;
77206;SDS011;66190;50.708;7.906;2023-08-17T12:07:23;6.45;;;3.08;;
77206;SDS011;66190;50.708;7.906;2023-08-17T12:09:51;6.13;;;2.77;;
77206;SDS011;66190;50.708;7.906;2023-08-17T12:12:18;5.32;;;2.63;;
77206;SDS011;66190;50.708;7.906;2023-08-17T12:14:46;5.05;;;2.63;;
77206;SDS011;66190;50.708;7.906;2023-08-17T12:17:16;6.15;;;2.95;;
77206;SDS011;66190;50.708;7.906;2023-08-17T12:19:42;7.50;;;3.50;;
77206;SDS011;66190;50.708;7.906;2023-08-17T12:22:08;6.13;;;3.17;;
77206;SDS011;66190;50.708;7.906;2023-08-17T12:24:34;5.13;;;2.70;;
77206;SDS011;66190;50.708;7.906;2023-08-17T12:27:01;5.80;;;2.90;;
77206;SDS011;66190;50.708;7.906;2023-08-17T12:29:27;5.68;;;2.63;;
77206;SDS011;66190;50.708;7.906;2023-08-17T12:31:53;5.80;;;2.70;;
77206;SDS011;66190;50.708;7.906;2023-08-17T12:34:18;6.77;;;2.97;;
77206;SDS011;66190;50.708;7.906;2023-08-17T12:36:44;5.70;;;3.03;;
77206;SDS011;66190;50.708;7.906;2023-08-17T12:39:09;5.70;;;2.60;;
77206;SDS011;66190;50.708;7.906;2023-08-17T12:41:35;6.13;;;2.67;;
77206;SDS011;66190;50.708;7.906;2023-08-17T12:44:00;5.73;;;2.77;;
77206;SDS011;66190;50.708;7.906;2023-08-17T12:46:26;6.00;;;3.17;;
77206;SDS011;66190;50.708;7.906;2023-08-17T12:48:52;6.30;;;3.87;;
77206;SDS011;66190;50.708;7.906;2023-08-17T12:51:18;6.05;;;3.03;;
77206;SDS011;66190;50.708;7.906;2023-08-17T12:53:43;6.20;;;2.80;;
77206;SDS011;66190;50.708;7.906;2023-08-17T12:56:08;5.67;;;3.10;;
77206;SDS011;66190;50.708;7.906;2023-08-17T12:58:34;6.50;;;2.60;;
77206;SDS011;66190;50.708;7.906;2023-08-17T13:00:59;5.75;;;2.80;;
77206;SDS011;66190;50.708;7.906;2023-08-17T13:03:25;5.83;;;2.80;;
77206;SDS011;66190;50.708;7.906;2023-08-17T13:05:50;6.50;;;3.17;;
77206;SDS011;66190;50.708;7.906;2023-08-17T13:08:15;5.37;;;2.70;;
77206;SDS011;66190;50.708;7.906;2023-08-17T13:10:41;5.80;;;2.90;;
77206;SDS011;66190;50.708;7.906;2023-08-17T13:13:06;5.53;;;2.58;;
77206;SDS011;66190;50.708;7.906;2023-08-17T13:15:32;6.57;;;3.53;;
77206;SDS011;66190;50.708;7.906;2023-08-17T13:17:58;5.65;;;2.47;;
77206;SDS011;66190;50.708;7.906;2023-08-17T13:20:24;6.10;;;2.50;;
77206;SDS011;66190;50.708;7.906;2023-08-17T13:22:50;5.80;;;2.90;;
77206;SDS011;66190;50.708;7.906;2023-08-17T13:25:15;5.20;;;2.70;;
77206;SDS011;66190;50.708;7.906;2023-08-17T13:27:41;5.75;;;3.25;;
77206;SDS011;66190;50.708;7.906;2023-08-17T13:30:07;5.47;;;3.00;;
77206;SDS011;66190;50.708;7.906;2023-08-17T13:32:33;6.00;;;3.25;;
77206;SDS011;66190;50.708;7.906;2023-08-17T13:34:58;5.50;;;2.70;;
77206;SDS011;66190;50.708;7.906;2023-08-17T13:37:24;5.90;;;3.20;;
77206;SDS011;66190;50.708;7.906;2023-08-17T13:39:49;5.38;;;2.65;;
77206;SDS011;66190;50.708;7.906;2023-08-17T13:42:15;5.60;;;2.60;;
77206;SDS011;66190;50.708;7.906;2023-08-17T13:44:40;6.60;;;2.90;;
77206;SDS011;66190;50.708;7.906;2023-08-17T13:47:05;5.40;;;2.53;;
77206;SDS011;66190;50.708;7.906;2023-08-17T13:49:31;5.70;;;3.10;;
77206;SDS011;66190;50.708;7.906;2023-08-17T13:51:57;5.40;;;2.40;;
77206;SDS011;66190;50.708;7.906;2023-08-17T13:54:23;6.07;;;2.45;;
77206;SDS011;66190;50.708;7.906;2023-08-17T13:56:48;5.40;;;2.60;;
77206;SDS011;66190;50.708;7.906;2023-08-17T13:59:14;5.93;;;2.70;;
77206;SDS011;66190;50.708;7.906;2023-08-17T14:15:46;5.87;;;2.50;;
77206;SDS011;66190;50.708;7.906;2023-08-17T14:18:11;5.85;;;3.05;;
77206;SDS011;66190;50.708;7.906;2023-08-17T14:20:37;5.60;;;2.27;;
77206;SDS011;66190;50.708;7.906;2023-08-17T14:23:02;5.27;;;3.00;;
77206;SDS011;66190;50.708;7.906;2023-08-17T14:25:27;6.63;;;2.73;;
77206;SDS011;66190;50.708;7.906;2023-08-17T14:27:53;5.97;;;2.80;;
77206;SDS011;66190;50.708;7.906;2023-08-17T14:30:18;5.30;;;2.57;;
77206;SDS011;66190;50.708;7.906;2023-08-17T14:32:44;6.17;;;2.53;;
77206;SDS011;66190;50.708;7.906;2023-08-17T14:35:09;8.10;;;3.07;;
77206;SDS011;66190;50.708;7.906;2023-08-17T14:37:35;6.17;;;2.77;;
77206;SDS011;66190;50.708;7.906;2023-08-17T14:40:00;6.97;;;2.77;;
77206;SDS011;66190;50.708;7.906;2023-08-17T14:42:26;5.73;;;2.40;;
77206;SDS011;66190;50.708;7.906;2023-08-17T14:44:51;6.53;;;2.50;;
77206;SDS011;66190;50.708;7.906;2023-08-17T14:47:17;6.03;;;2.70;;
77206;SDS011;66190;50.708;7.906;2023-08-17T14:49:42;5.53;;;2.20;;
77206;SDS011;66190;50.708;7.906;2023-08-17T14:52:07;5.20;;;2.67;;
77206;SDS011;66190;50.708;7.906;2023-08-17T14:54:33;5.90;;;2.97;;
77206;SDS011;66190;50.708;7.906;2023-08-17T14:56:58;5.30;;;2.63;;
77206;SDS011;66190;50.708;7.906;2023-08-17T14:59:23;5.20;;;2.17;;
77206;SDS011;66190;50.708;7.906;2023-08-17T15:01:49;4.83;;;2.23;;
77206;SDS011;66190;50.708;7.906;2023-08-17T15:04:17;4.73;;;2.20;;
77206;SDS011;66190;50.708;7.906;2023-08-17T15:06:42;4.70;;;2.03;;
77206;SDS011;66190;50.708;7.906;2023-08-17T15:09:08;5.07;;;2.70;;
77206;SDS011;66190;50.708;7.906;2023-08-17T15:11:34;5.03;;;2.30;;
77206;SDS011;66190;50.708;7.906;2023-08-17T15:14:00;4.93;;;2.42;;
77206;SDS011;66190;50.708;7.906;2023-08-17T15:16:26;5.87;;;2.30;;
77206;SDS011;66190;50.708;7.906;2023-08-17T15:18:52;5.05;;;2.13;;
77206;SDS011;66190;50.708;7.906;2023-08-17T15:21:18;6.68;;;2.58;;
77206;SDS011;66190;50.708;7.906;2023-08-17T15:23:44;6.50;;;2.40;;
77206;SDS011;66190;50.708;7.906;2023-08-17T15:26:09;5.57;;;2.60;;
77206;SDS011;66190;50.708;7.906;2023-08-17T15:28:35;4.93;;;2.30;;
77206;SDS011;66190;50.708;7.906;2023-08-17T15:31:02;6.80;;;2.75;;
77206;SDS011;66190;50.708;7.906;2023-08-17T15:33:29;5.28;;;2.47;;
77206;SDS011;66190;50.708;7.906;2023-08-17T15:35:54;5.10;;;2.60;;
77206;SDS011;66190;50.708;7.906;2023-08-17T15:38:22;4.90;;;2.58;;
77206;SDS011;66190;50.708;7.906;2023-08-17T15:40:47;5.20;;;2.67;;
77206;SDS011;66190;50.708;7.906;2023-08-17T15:43:13;5.30;;;3.10;;
77206;SDS011;66190;50.708;7.906;2023-08-17T15:45:38;4.90;;;2.40;;
77206;SDS011;66190;50.708;7.906;2023-08-17T15:48:05;5.10;;;2.65;;
77206;SDS011;66190;50.708;7.906;2023-08-17T15:50:31;4.70;;;2.63;;
77206;SDS011;66190;50.708;7.906;2023-08-17T15:52:56;5.40;;;2.67;;
77206;SDS011;66190;50.708;7.906;2023-08-17T15:55:22;8.30;;;3.00;;
77206;SDS011;66190;50.708;7.906;2023-08-17T15:57:47;5.17;;;2.57;;
77206;SDS011;66190;50.708;7.906;2023-08-17T16:00:12;5.63;;;2.95;;
77206;SDS011;66190;50.708;7.906;2023-08-17T16:02:38;5.30;;;2.50;;
77206;SDS011;66190;50.708;7.906;2023-08-17T16:05:03;5.63;;;3.00;;